sensor_id;sensor_type;location;lat;lon;timestamp;temperature;humidity
16999;DHT22;10211;49.476;11.010;2023-10-19T00:00:03;8.20;99.90
16999;DHT22;10211;49.476;11.010;2023-10-19T00:02:48;8.20;99.90
16999;DHT22;10211;49.476;11.010;2023-10-19T00:05:18;8.20;99.90
16999;DHT22;10211;49.476;11.010;2023-10-19T00:07:45;8.20;99.90
16999;DHT22;10211;49.476;11.010;2023-10-19T00:10:13;8.20;99.90
16999;DHT22;10211;49.476;11.010;2023-10-19T00:12:42;8.20;99.90
16999;DHT22;10211;49.476;11.010;2023-10-19T00:15:10;8.20;99.90
16999;DHT22;10211;49.476;11.010;2023-10-19T00:17:37;8.20;99.90
16999;DHT22;10211;49.476;11.010;2023-10-19T00:20:08;8.20;99.90
16999;DHT22;10211;49.476;11.010;2023-10-19T00:22:48;8.20;99.90
16999;DHT22;10211;49.476;11.010;2023-10-19T00:25:15;8.20;99.90
16999;DHT22;10211;49.476;11.010;2023-10-19T00:27:41;8.30;99.90
16999;DHT22;10211;49.476;11.010;2023-10-19T00:30:08;8.30;99.90
16999;DHT22;10211;49.476;11.010;2023-10-19T00:32:36;8.30;99.90
16999;DHT22;10211;49.476;11.010;2023-10-19T00:35:06;8.30;99.90
16999;DHT22;10211;49.476;11.010;2023-10-19T00:37:53;8.30;99.90
16999;DHT22;10211;49.476;11.010;2023-10-19T00:40:22;8.30;99.90
16999;DHT22;10211;49.476;11.010;2023-10-19T00:43:03;8.40;99.90
16999;DHT22;10211;49.476;11.010;2023-10-19T00:45:33;8.40;99.90
16999;DHT22;10211;49.476;11.010;2023-10-19T00:48:07;8.40;99.90
16999;DHT22;10211;49.476;11.010;2023-10-19T00:50:38;8.40;99.90
16999;DHT22;10211;49.476;11.010;2023-10-19T00:53:06;8.40;99.90
16999;DHT22;10211;49.476;11.010;2023-10-19T00:55:34;8.40;99.90
16999;DHT22;10211;49.476;11.010;2023-10-19T00:58:02;8.50;99.90
16999;DHT22;10211;49.476;11.010;2023-10-19T01:00:35;8.40;99.90
16999;DHT22;10211;49.476;11.010;2023-10-19T01:03:10;8.50;99.90
16999;DHT22;10211;49.476;11.010;2023-10-19T01:05:43;8.50;99.90
16999;DHT22;10211;49.476;11.010;2023-10-19T01:08:14;8.50;99.90
16999;DHT22;10211;49.476;11.010;2023-10-19T01:10:50;8.50;99.90
16999;DHT22;10211;49.476;11.010;2023-10-19T01:13:19;8.60;99.90
16999;DHT22;10211;49.476;11.010;2023-10-19T01:15:52;8.60;99.90
16999;DHT22;10211;49.476;11.010;2023-10-19T01:18:19;8.60;99.90
16999;DHT22;10211;49.476;11.010;2023-10-19T01:20:48;8.60;99.90
16999;DHT22;10211;49.476;11.010;2023-10-19T01:23:18;8.60;99.90
16999;DHT22;10211;49.476;11.010;2023-10-19T01:25:53;8.60;99.90
16999;DHT22;10211;49.476;11.010;2023-10-19T01:28:32;8.60;99.90
16999;DHT22;10211;49.476;11.010;2023-10-19T01:31:14;8.60;99.90
16999;DHT22;10211;49.476;11.010;2023-10-19T01:33:42;8.60;99.90
16999;DHT22;10211;49.476;11.010;2023-10-19T01:36:09;8.60;99.90
16999;DHT22;10211;49.476;11.010;2023-10-19T01:38:37;8.60;99.90
16999;DHT22;10211;49.476;11.010;2023-10-19T01:41:06;8.60;99.90
16999;DHT22;10211;49.476;11.010;2023-10-19T01:43:39;8.60;99.90
16999;DHT22;10211;49.476;11.010;2023-10-19T01:46:07;8.60;99.90
16999;DHT22;10211;49.476;11.010;2023-10-19T01:48:37;8.60;99.90
16999;DHT22;10211;49.476;11.010;2023-10-19T01:51:07;8.60;99.90
16999;DHT22;10211;49.476;11.010;2023-10-19T01:53:37;8.60;99.90
16999;DHT22;10211;49.476;11.010;2023-10-19T01:56:09;8.60;99.90
16999;DHT22;10211;49.476;11.010;2023-10-19T01:58:35;8.60;99.90
16999;DHT22;10211;49.476;11.010;2023-10-19T02:01:03;8.60;99.90
16999;DHT22;10211;49.476;11.010;2023-10-19T02:03:34;8.60;99.90
16999;DHT22;10211;49.476;11.010;2023-10-19T02:06:01;8.90;99.90
16999;DHT22;10211;49.476;11.010;2023-10-19T02:08:36;8.70;99.90
16999;DHT22;10211;49.476;11.010;2023-10-19T02:11:04;8.60;99.90
16999;DHT22;10211;49.476;11.010;2023-10-19T02:13:39;8.60;99.90
16999;DHT22;10211;49.476;11.010;2023-10-19T02:16:06;8.60;99.90
16999;DHT22;10211;49.476;11.010;2023-10-19T02:18:32;8.60;99.90
16999;DHT22;10211;49.476;11.010;2023-10-19T02:21:00;8.70;99.90
16999;DHT22;10211;49.476;11.010;2023-10-19T02:23:27;8.60;99.90
16999;DHT22;10211;49.476;11.010;2023-10-19T02:25:55;8.70;99.90
16999;DHT22;10211;49.476;11.010;2023-10-19T02:28:21;8.70;99.90
16999;DHT22;10211;49.476;11.010;2023-10-19T02:30:54;8.70;99.90
16999;DHT22;10211;49.476;11.010;2023-10-19T02:33:20;8.70;99.90
16999;DHT22;10211;49.476;11.010;2023-10-19T02:35:48;8.80;99.90
16999;DHT22;10211;49.476;11.010;2023-10-19T02:38:14;8.70;99.90
16999;DHT22;10211;49.476;11.010;2023-10-19T02:40:40;8.80;99.90
16999;DHT22;10211;49.476;11.010;2023-10-19T02:43:07;8.80;99.90
16999;DHT22;10211;49.476;11.010;2023-10-19T02:45:34;8.80;99.90
16999;DHT22;10211;49.476;11.010;2023-10-19T02:48:00;8.80;99.90
16999;DHT22;10211;49.476;11.010;2023-10-19T02:50:27;8.80;99.90
16999;DHT22;10211;49.476;11.010;2023-10-19T02:52:52;9.40;99.90
16999;DHT22;10211;49.476;11.010;2023-10-19T02:55:19;8.80;99.90
16999;DHT22;10211;49.476;11.010;2023-10-19T02:57:49;8.80;99.90
16999;DHT22;10211;49.476;11.010;2023-10-19T03:00:18;8.90;99.90
16999;DHT22;10211;49.476;11.010;2023-10-19T03:02:46;8.90;99.90
16999;DHT22;10211;49.476;11.010;2023-10-19T03:05:12;8.90;99.90
16999;DHT22;10211;49.476;11.010;2023-10-19T03:07:40;8.90;99.90
16999;DHT22;10211;49.476;11.010;2023-10-19T03:10:09;8.90;99.90
16999;DHT22;10211;49.476;11.010;2023-10-19T03:12:48;8.90;99.90
16999;DHT22;10211;49.476;11.010;2023-10-19T03:15:15;8.90;99.90
16999;DHT22;10211;49.476;11.010;2023-10-19T03:17:44;9.00;99.90
16999;DHT22;10211;49.476;11.010;2023-10-19T03:20:11;9.00;99.90
16999;DHT22;10211;49.476;11.010;2023-10-19T03:22:37;9.00;99.90
16999;DHT22;10211;49.476;11.010;2023-10-19T03:25:04;8.90;99.90
16999;DHT22;10211;49.476;11.010;2023-10-19T03:27:58;8.90;99.90
16999;DHT22;10211;49.476;11.010;2023-10-19T03:30:31;8.90;99.90
16999;DHT22;10211;49.476;11.010;2023-10-19T03:33:00;8.80;99.90
16999;DHT22;10211;49.476;11.010;2023-10-19T03:35:26;8.80;99.90
16999;DHT22;10211;49.476;11.010;2023-10-19T03:37:53;8.80;99.90
16999;DHT22;10211;49.476;11.010;2023-10-19T03:40:23;8.80;99.90
16999;DHT22;10211;49.476;11.010;2023-10-19T03:42:55;8.80;99.90
16999;DHT22;10211;49.476;11.010;2023-10-19T03:45:22;8.90;99.90
16999;DHT22;10211;49.476;11.010;2023-10-19T03:47:50;8.90;99.90
16999;DHT22;10211;49.476;11.010;2023-10-19T03:50:20;8.90;99.90
16999;DHT22;10211;49.476;11.010;2023-10-19T03:52:47;8.90;99.90
16999;DHT22;10211;49.476;11.010;2023-10-19T03:55:14;8.90;99.90
16999;DHT22;10211;49.476;11.010;2023-10-19T03:57:43;8.90;99.90
16999;DHT22;10211;49.476;11.010;2023-10-19T04:00:16;8.90;99.90
16999;DHT22;10211;49.476;11.010;2023-10-19T04:02:47;8.90;99.90
16999;DHT22;10211;49.476;11.010;2023-10-19T04:05:20;8.90;99.90
16999;DHT22;10211;49.476;11.010;2023-10-19T04:07:48;8.90;99.90
16999;DHT22;10211;49.476;11.010;2023-10-19T04:10:25;8.90;99.90
16999;DHT22;10211;49.476;11.010;2023-10-19T04:13:10;8.90;99.90
16999;DHT22;10211;49.476;11.010;2023-10-19T04:15:39;8.90;99.90
16999;DHT22;10211;49.476;11.010;2023-10-19T04:18:07;8.90;99.90
16999;DHT22;10211;49.476;11.010;2023-10-19T04:20:47;8.90;99.90
16999;DHT22;10211;49.476;11.010;2023-10-19T04:23:24;8.80;99.90
16999;DHT22;10211;49.476;11.010;2023-10-19T04:25:54;8.80;99.90
16999;DHT22;10211;49.476;11.010;2023-10-19T04:28:24;8.80;99.90
16999;DHT22;10211;49.476;11.010;2023-10-19T04:31:03;8.80;99.90
16999;DHT22;10211;49.476;11.010;2023-10-19T04:33:31;8.80;99.90
16999;DHT22;10211;49.476;11.010;2023-10-19T04:36:01;8.30;99.90
16999;DHT22;10211;49.476;11.010;2023-10-19T04:38:28;8.80;99.90
16999;DHT22;10211;49.476;11.010;2023-10-19T04:41:06;8.80;99.90
16999;DHT22;10211;49.476;11.010;2023-10-19T04:43:36;8.80;99.90
16999;DHT22;10211;49.476;11.010;2023-10-19T04:46:06;8.80;99.90
16999;DHT22;10211;49.476;11.010;2023-10-19T04:48:37;8.80;99.90
16999;DHT22;10211;49.476;11.010;2023-10-19T04:51:06;8.80;99.90
16999;DHT22;10211;49.476;11.010;2023-10-19T04:53:34;8.80;99.90
16999;DHT22;10211;49.476;11.010;2023-10-19T04:56:02;8.80;99.90
16999;DHT22;10211;49.476;11.010;2023-10-19T04:58:43;8.70;99.90
16999;DHT22;10211;49.476;11.010;2023-10-19T05:01:12;8.80;99.90
16999;DHT22;10211;49.476;11.010;2023-10-19T05:03:40;8.70;99.90
16999;DHT22;10211;49.476;11.010;2023-10-19T05:06:10;8.80;99.90
16999;DHT22;10211;49.476;11.010;2023-10-19T05:08:38;8.80;99.90
16999;DHT22;10211;49.476;11.010;2023-10-19T05:11:06;8.80;99.90
16999;DHT22;10211;49.476;11.010;2023-10-19T05:13:34;8.80;99.90
16999;DHT22;10211;49.476;11.010;2023-10-19T05:16:09;8.80;99.90
16999;DHT22;10211;49.476;11.010;2023-10-19T05:18:38;8.80;99.90
16999;DHT22;10211;49.476;11.010;2023-10-19T05:21:05;8.70;99.90
16999;DHT22;10211;49.476;11.010;2023-10-19T05:23:33;8.70;99.90
16999;DHT22;10211;49.476;11.010;2023-10-19T05:26:01;9.20;99.90
16999;DHT22;10211;49.476;11.010;2023-10-19T05:28:28;8.70;99.90
16999;DHT22;10211;49.476;11.010;2023-10-19T05:30:55;8.70;99.90
16999;DHT22;10211;49.476;11.010;2023-10-19T05:33:24;8.70;99.90
16999;DHT22;10211;49.476;11.010;2023-10-19T05:35:51;8.70;99.90
16999;DHT22;10211;49.476;11.010;2023-10-19T05:38:18;8.70;99.90
16999;DHT22;10211;49.476;11.010;2023-10-19T05:40:49;8.80;99.90
16999;DHT22;10211;49.476;11.010;2023-10-19T05:43:18;8.80;99.90
16999;DHT22;10211;49.476;11.010;2023-10-19T05:45:45;8.80;99.90
16999;DHT22;10211;49.476;11.010;2023-10-19T05:48:15;8.80;99.90
16999;DHT22;10211;49.476;11.010;2023-10-19T05:50:42;8.80;99.90
16999;DHT22;10211;49.476;11.010;2023-10-19T05:53:09;8.80;99.90
16999;DHT22;10211;49.476;11.010;2023-10-19T05:55:36;8.80;99.90
16999;DHT22;10211;49.476;11.010;2023-10-19T05:58:06;8.80;99.90
16999;DHT22;10211;49.476;11.010;2023-10-19T06:00:33;8.80;99.90
16999;DHT22;10211;49.476;11.010;2023-10-19T06:03:00;8.70;99.90
16999;DHT22;10211;49.476;11.010;2023-10-19T06:05:27;8.70;99.90
16999;DHT22;10211;49.476;11.010;2023-10-19T06:07:55;9.30;99.90
16999;DHT22;10211;49.476;11.010;2023-10-19T06:10:26;8.70;99.90
16999;DHT22;10211;49.476;11.010;2023-10-19T06:12:54;8.60;99.90
16999;DHT22;10211;49.476;11.010;2023-10-19T06:15:22;8.60;99.90
16999;DHT22;10211;49.476;11.010;2023-10-19T06:17:50;8.60;99.90
16999;DHT22;10211;49.476;11.010;2023-10-19T06:20:18;8.60;99.90
16999;DHT22;10211;49.476;11.010;2023-10-19T06:22:50;8.50;99.90
16999;DHT22;10211;49.476;11.010;2023-10-19T06:25:18;8.50;99.90
16999;DHT22;10211;49.476;11.010;2023-10-19T06:27:47;8.50;99.90
16999;DHT22;10211;49.476;11.010;2023-10-19T06:30:14;8.50;99.90
16999;DHT22;10211;49.476;11.010;2023-10-19T06:32:47;8.60;99.90
16999;DHT22;10211;49.476;11.010;2023-10-19T06:35:14;8.60;99.90
16999;DHT22;10211;49.476;11.010;2023-10-19T06:37:41;8.60;99.90
16999;DHT22;10211;49.476;11.010;2023-10-19T06:40:10;8.70;99.90
16999;DHT22;10211;49.476;11.010;2023-10-19T06:42:37;8.80;99.90
16999;DHT22;10211;49.476;11.010;2023-10-19T06:45:05;8.80;99.90
16999;DHT22;10211;49.476;11.010;2023-10-19T06:47:33;8.90;99.90
16999;DHT22;10211;49.476;11.010;2023-10-19T06:50:06;8.90;99.90
16999;DHT22;10211;49.476;11.010;2023-10-19T06:52:35;8.90;99.90
16999;DHT22;10211;49.476;11.010;2023-10-19T06:55:03;8.90;99.90
16999;DHT22;10211;49.476;11.010;2023-10-19T06:57:30;9.00;99.90
16999;DHT22;10211;49.476;11.010;2023-10-19T06:59:57;9.10;99.90
16999;DHT22;10211;49.476;11.010;2023-10-19T07:02:24;9.20;99.90
16999;DHT22;10211;49.476;11.010;2023-10-19T07:04:52;9.30;99.90
16999;DHT22;10211;49.476;11.010;2023-10-19T07:07:20;9.30;99.90
16999;DHT22;10211;49.476;11.010;2023-10-19T07:09:47;9.50;99.90
16999;DHT22;10211;49.476;11.010;2023-10-19T07:12:16;9.60;99.90
16999;DHT22;10211;49.476;11.010;2023-10-19T07:14:43;9.70;99.90
16999;DHT22;10211;49.476;11.010;2023-10-19T07:17:10;9.70;99.90
16999;DHT22;10211;49.476;11.010;2023-10-19T07:19:41;9.80;99.90
16999;DHT22;10211;49.476;11.010;2023-10-19T07:22:08;9.90;99.90
16999;DHT22;10211;49.476;11.010;2023-10-19T07:24:36;10.20;99.90
16999;DHT22;10211;49.476;11.010;2023-10-19T07:27:03;10.70;99.90
16999;DHT22;10211;49.476;11.010;2023-10-19T07:29:33;10.80;99.90
16999;DHT22;10211;49.476;11.010;2023-10-19T07:32:01;10.80;99.90
16999;DHT22;10211;49.476;11.010;2023-10-19T07:34:32;10.80;99.90
16999;DHT22;10211;49.476;11.010;2023-10-19T07:37:00;10.60;99.90
16999;DHT22;10211;49.476;11.010;2023-10-19T07:39:44;10.60;99.90
16999;DHT22;10211;49.476;11.010;2023-10-19T07:42:12;10.50;99.90
16999;DHT22;10211;49.476;11.010;2023-10-19T07:44:38;10.50;99.90
16999;DHT22;10211;49.476;11.010;2023-10-19T07:47:06;10.40;99.90
16999;DHT22;10211;49.476;11.010;2023-10-19T07:49:34;10.40;99.90
16999;DHT22;10211;49.476;11.010;2023-10-19T07:52:04;10.50;99.90
16999;DHT22;10211;49.476;11.010;2023-10-19T07:54:32;10.80;99.90
16999;DHT22;10211;49.476;11.010;2023-10-19T07:57:00;10.80;99.90
16999;DHT22;10211;49.476;11.010;2023-10-19T07:59:31;10.90;99.90
16999;DHT22;10211;49.476;11.010;2023-10-19T08:01:58;11.00;99.90
16999;DHT22;10211;49.476;11.010;2023-10-19T08:04:26;11.10;99.90
16999;DHT22;10211;49.476;11.010;2023-10-19T08:06:54;11.40;99.90
16999;DHT22;10211;49.476;11.010;2023-10-19T08:09:22;11.70;99.90
16999;DHT22;10211;49.476;11.010;2023-10-19T08:11:49;11.90;99.90
16999;DHT22;10211;49.476;11.010;2023-10-19T08:14:39;12.10;99.90
16999;DHT22;10211;49.476;11.010;2023-10-19T08:17:20;12.10;99.90
16999;DHT22;10211;49.476;11.010;2023-10-19T08:20:09;12.10;99.90
16999;DHT22;10211;49.476;11.010;2023-10-19T08:22:50;11.90;99.90
16999;DHT22;10211;49.476;11.010;2023-10-19T08:25:18;11.90;99.90
16999;DHT22;10211;49.476;11.010;2023-10-19T08:27:59;12.10;99.90
16999;DHT22;10211;49.476;11.010;2023-10-19T08:30:45;11.90;99.90
16999;DHT22;10211;49.476;11.010;2023-10-19T08:33:22;11.80;99.90
16999;DHT22;10211;49.476;11.010;2023-10-19T08:35:51;12.00;99.90
16999;DHT22;10211;49.476;11.010;2023-10-19T08:38:19;12.10;99.90
16999;DHT22;10211;49.476;11.010;2023-10-19T08:41:00;12.30;99.90
16999;DHT22;10211;49.476;11.010;2023-10-19T08:43:27;12.50;99.90
16999;DHT22;10211;49.476;11.010;2023-10-19T08:46:10;12.70;99.90
16999;DHT22;10211;49.476;11.010;2023-10-19T08:48:38;12.90;99.90
16999;DHT22;10211;49.476;11.010;2023-10-19T08:51:09;13.00;99.90
16999;DHT22;10211;49.476;11.010;2023-10-19T08:53:37;13.00;99.90
16999;DHT22;10211;49.476;11.010;2023-10-19T08:56:06;13.10;99.90
16999;DHT22;10211;49.476;11.010;2023-10-19T08:58:34;13.10;99.90
16999;DHT22;10211;49.476;11.010;2023-10-19T09:01:01;13.10;99.90
16999;DHT22;10211;49.476;11.010;2023-10-19T09:03:33;13.20;99.90
16999;DHT22;10211;49.476;11.010;2023-10-19T09:06:01;13.20;99.90
16999;DHT22;10211;49.476;11.010;2023-10-19T09:08:28;13.40;99.90
16999;DHT22;10211;49.476;11.010;2023-10-19T09:11:06;13.80;99.90
16999;DHT22;10211;49.476;11.010;2023-10-19T09:13:43;13.90;99.90
16999;DHT22;10211;49.476;11.010;2023-10-19T09:16:10;14.10;99.90
16999;DHT22;10211;49.476;11.010;2023-10-19T09:18:38;14.10;99.90
16999;DHT22;10211;49.476;11.010;2023-10-19T09:21:07;14.10;99.90
16999;DHT22;10211;49.476;11.010;2023-10-19T09:23:37;14.10;99.90
16999;DHT22;10211;49.476;11.010;2023-10-19T09:26:05;14.40;99.90
16999;DHT22;10211;49.476;11.010;2023-10-19T09:28:34;14.60;99.90
16999;DHT22;10211;49.476;11.010;2023-10-19T09:31:02;14.70;99.90
16999;DHT22;10211;49.476;11.010;2023-10-19T09:33:31;14.60;99.90
16999;DHT22;10211;49.476;11.010;2023-10-19T09:36:02;14.60;99.90
16999;DHT22;10211;49.476;11.010;2023-10-19T09:38:30;14.50;99.90
16999;DHT22;10211;49.476;11.010;2023-10-19T09:40:58;14.60;99.90
16999;DHT22;10211;49.476;11.010;2023-10-19T09:43:33;14.50;99.90
16999;DHT22;10211;49.476;11.010;2023-10-19T09:46:01;14.60;99.90
16999;DHT22;10211;49.476;11.010;2023-10-19T09:48:34;14.80;99.90
16999;DHT22;10211;49.476;11.010;2023-10-19T09:51:05;14.80;99.90
16999;DHT22;10211;49.476;11.010;2023-10-19T09:53:35;14.80;99.90
16999;DHT22;10211;49.476;11.010;2023-10-19T09:56:05;14.80;99.90
16999;DHT22;10211;49.476;11.010;2023-10-19T09:58:36;14.80;99.90
16999;DHT22;10211;49.476;11.010;2023-10-19T10:01:04;14.90;99.90
16999;DHT22;10211;49.476;11.010;2023-10-19T10:03:47;15.10;99.90
16999;DHT22;10211;49.476;11.010;2023-10-19T10:06:17;15.40;99.90
16999;DHT22;10211;49.476;11.010;2023-10-19T10:08:46;15.60;99.90
16999;DHT22;10211;49.476;11.010;2023-10-19T10:11:16;15.80;99.90
16999;DHT22;10211;49.476;11.010;2023-10-19T10:13:43;16.00;99.90
16999;DHT22;10211;49.476;11.010;2023-10-19T10:16:13;16.20;99.90
16999;DHT22;10211;49.476;11.010;2023-10-19T10:18:40;16.50;99.90
16999;DHT22;10211;49.476;11.010;2023-10-19T10:21:11;16.80;99.90
16999;DHT22;10211;49.476;11.010;2023-10-19T10:23:43;16.90;99.90
16999;DHT22;10211;49.476;11.010;2023-10-19T10:26:11;16.80;99.90
16999;DHT22;10211;49.476;11.010;2023-10-19T10:28:39;16.90;99.90
16999;DHT22;10211;49.476;11.010;2023-10-19T10:31:16;17.10;99.90
16999;DHT22;10211;49.476;11.010;2023-10-19T10:33:47;17.30;99.90
16999;DHT22;10211;49.476;11.010;2023-10-19T10:36:15;17.40;99.90
16999;DHT22;10211;49.476;11.010;2023-10-19T10:38:45;17.40;99.90
16999;DHT22;10211;49.476;11.010;2023-10-19T10:41:12;17.30;99.90
16999;DHT22;10211;49.476;11.010;2023-10-19T10:43:50;17.20;99.90
16999;DHT22;10211;49.476;11.010;2023-10-19T10:46:18;17.00;99.90
16999;DHT22;10211;49.476;11.010;2023-10-19T10:48:45;16.80;99.90
16999;DHT22;10211;49.476;11.010;2023-10-19T10:51:17;16.70;99.90
16999;DHT22;10211;49.476;11.010;2023-10-19T10:53:48;16.80;99.90
16999;DHT22;10211;49.476;11.010;2023-10-19T10:56:15;16.90;99.90
16999;DHT22;10211;49.476;11.010;2023-10-19T10:58:42;17.60;99.90
16999;DHT22;10211;49.476;11.010;2023-10-19T11:01:09;18.90;99.90
16999;DHT22;10211;49.476;11.010;2023-10-19T11:03:36;20.60;99.90
16999;DHT22;10211;49.476;11.010;2023-10-19T11:06:04;21.40;99.90
16999;DHT22;10211;49.476;11.010;2023-10-19T11:08:34;21.50;99.90
16999;DHT22;10211;49.476;11.010;2023-10-19T11:11:07;21.70;99.90
16999;DHT22;10211;49.476;11.010;2023-10-19T11:13:36;21.00;99.90
16999;DHT22;10211;49.476;11.010;2023-10-19T11:16:04;20.80;99.90
16999;DHT22;10211;49.476;11.010;2023-10-19T11:18:34;21.20;99.90
16999;DHT22;10211;49.476;11.010;2023-10-19T11:21:03;22.20;99.90
16999;DHT22;10211;49.476;11.010;2023-10-19T11:23:41;23.00;99.90
16999;DHT22;10211;49.476;11.010;2023-10-19T11:26:10;23.40;99.90
16999;DHT22;10211;49.476;11.010;2023-10-19T11:28:38;23.40;99.90
16999;DHT22;10211;49.476;11.010;2023-10-19T11:31:12;22.80;99.90
16999;DHT22;10211;49.476;11.010;2023-10-19T11:33:40;22.10;99.90
16999;DHT22;10211;49.476;11.010;2023-10-19T11:36:08;21.70;99.90
16999;DHT22;10211;49.476;11.010;2023-10-19T11:38:35;21.20;99.90
16999;DHT22;10211;49.476;11.010;2023-10-19T11:41:03;20.90;99.90
16999;DHT22;10211;49.476;11.010;2023-10-19T11:43:31;20.60;99.90
16999;DHT22;10211;49.476;11.010;2023-10-19T11:45:57;20.40;99.90
16999;DHT22;10211;49.476;11.010;2023-10-19T11:48:25;20.20;99.90
16999;DHT22;10211;49.476;11.010;2023-10-19T11:50:51;19.80;99.90
16999;DHT22;10211;49.476;11.010;2023-10-19T11:53:18;19.60;99.90
16999;DHT22;10211;49.476;11.010;2023-10-19T11:55:45;19.30;99.90
16999;DHT22;10211;49.476;11.010;2023-10-19T11:58:13;19.10;99.90
16999;DHT22;10211;49.476;11.010;2023-10-19T12:00:42;18.90;99.90
16999;DHT22;10211;49.476;11.010;2023-10-19T12:03:09;18.80;99.90
16999;DHT22;10211;49.476;11.010;2023-10-19T12:05:36;18.70;99.90
16999;DHT22;10211;49.476;11.010;2023-10-19T12:08:04;18.60;99.90
16999;DHT22;10211;49.476;11.010;2023-10-19T12:10:32;18.50;99.90
16999;DHT22;10211;49.476;11.010;2023-10-19T12:13:02;18.40;99.90
16999;DHT22;10211;49.476;11.010;2023-10-19T12:15:31;18.30;99.90
16999;DHT22;10211;49.476;11.010;2023-10-19T12:17:59;19.20;99.90
16999;DHT22;10211;49.476;11.010;2023-10-19T12:20:27;18.00;99.90
16999;DHT22;10211;49.476;11.010;2023-10-19T12:22:56;17.90;99.90
16999;DHT22;10211;49.476;11.010;2023-10-19T12:25:24;17.90;99.90
16999;DHT22;10211;49.476;11.010;2023-10-19T12:27:56;17.90;99.90
16999;DHT22;10211;49.476;11.010;2023-10-19T12:30:23;18.00;99.90
16999;DHT22;10211;49.476;11.010;2023-10-19T12:32:51;17.90;99.90
16999;DHT22;10211;49.476;11.010;2023-10-19T12:35:19;17.80;99.90
16999;DHT22;10211;49.476;11.010;2023-10-19T12:37:50;17.80;99.90
16999;DHT22;10211;49.476;11.010;2023-10-19T12:40:17;17.80;99.90
16999;DHT22;10211;49.476;11.010;2023-10-19T12:42:54;17.80;99.90
16999;DHT22;10211;49.476;11.010;2023-10-19T12:45:21;17.90;99.90
16999;DHT22;10211;49.476;11.010;2023-10-19T12:47:48;17.90;99.90
16999;DHT22;10211;49.476;11.010;2023-10-19T12:50:17;17.90;99.90
16999;DHT22;10211;49.476;11.010;2023-10-19T12:52:46;17.80;99.90
16999;DHT22;10211;49.476;11.010;2023-10-19T12:55:12;17.90;99.90
16999;DHT22;10211;49.476;11.010;2023-10-19T12:57:40;17.80;99.90
16999;DHT22;10211;49.476;11.010;2023-10-19T13:00:07;17.80;99.90
16999;DHT22;10211;49.476;11.010;2023-10-19T13:02:48;17.90;99.90
16999;DHT22;10211;49.476;11.010;2023-10-19T13:05:15;18.00;99.90
16999;DHT22;10211;49.476;11.010;2023-10-19T13:07:43;18.20;99.90
16999;DHT22;10211;49.476;11.010;2023-10-19T13:10:11;18.50;99.90
16999;DHT22;10211;49.476;11.010;2023-10-19T13:12:38;18.20;99.90
16999;DHT22;10211;49.476;11.010;2023-10-19T13:15:07;18.10;99.90
16999;DHT22;10211;49.476;11.010;2023-10-19T13:17:39;17.90;99.90
16999;DHT22;10211;49.476;11.010;2023-10-19T13:20:08;17.80;99.90
16999;DHT22;10211;49.476;11.010;2023-10-19T13:22:43;17.60;99.90
16999;DHT22;10211;49.476;11.010;2023-10-19T13:25:12;17.40;99.90
16999;DHT22;10211;49.476;11.010;2023-10-19T13:27:43;17.20;99.90
16999;DHT22;10211;49.476;11.010;2023-10-19T13:30:11;17.10;99.90
16999;DHT22;10211;49.476;11.010;2023-10-19T13:32:39;16.80;99.90
16999;DHT22;10211;49.476;11.010;2023-10-19T13:35:07;16.70;99.90
16999;DHT22;10211;49.476;11.010;2023-10-19T13:37:34;16.60;99.90
16999;DHT22;10211;49.476;11.010;2023-10-19T13:40:02;16.50;99.90
16999;DHT22;10211;49.476;11.010;2023-10-19T13:42:31;16.50;99.90
16999;DHT22;10211;49.476;11.010;2023-10-19T13:44:58;16.40;99.90
16999;DHT22;10211;49.476;11.010;2023-10-19T13:47:25;16.90;99.90
16999;DHT22;10211;49.476;11.010;2023-10-19T13:49:51;16.50;99.90
16999;DHT22;10211;49.476;11.010;2023-10-19T13:52:18;16.50;99.90
16999;DHT22;10211;49.476;11.010;2023-10-19T13:54:45;16.40;99.90
16999;DHT22;10211;49.476;11.010;2023-10-19T13:57:12;16.40;99.90
16999;DHT22;10211;49.476;11.010;2023-10-19T13:59:40;16.40;99.90
16999;DHT22;10211;49.476;11.010;2023-10-19T14:02:07;16.40;99.90
16999;DHT22;10211;49.476;11.010;2023-10-19T14:04:34;16.30;99.90
16999;DHT22;10211;49.476;11.010;2023-10-19T14:07:01;16.20;99.90
16999;DHT22;10211;49.476;11.010;2023-10-19T14:09:27;16.10;99.90
16999;DHT22;10211;49.476;11.010;2023-10-19T14:11:57;16.10;99.90
16999;DHT22;10211;49.476;11.010;2023-10-19T14:14:24;16.00;99.90
16999;DHT22;10211;49.476;11.010;2023-10-19T14:16:52;16.00;99.90
16999;DHT22;10211;49.476;11.010;2023-10-19T14:19:19;16.00;99.90
16999;DHT22;10211;49.476;11.010;2023-10-19T14:21:47;16.00;99.90
16999;DHT22;10211;49.476;11.010;2023-10-19T14:24:13;16.00;99.90
16999;DHT22;10211;49.476;11.010;2023-10-19T14:26:40;15.90;99.90
16999;DHT22;10211;49.476;11.010;2023-10-19T14:29:08;15.90;99.90
16999;DHT22;10211;49.476;11.010;2023-10-19T14:31:34;15.80;99.90
16999;DHT22;10211;49.476;11.010;2023-10-19T14:34:03;15.80;99.90
16999;DHT22;10211;49.476;11.010;2023-10-19T14:36:30;15.80;99.90
16999;DHT22;10211;49.476;11.010;2023-10-19T14:38:57;15.80;99.90
16999;DHT22;10211;49.476;11.010;2023-10-19T14:41:24;15.70;99.90
16999;DHT22;10211;49.476;11.010;2023-10-19T14:43:50;15.70;99.90
16999;DHT22;10211;49.476;11.010;2023-10-19T14:46:17;15.70;99.90
16999;DHT22;10211;49.476;11.010;2023-10-19T14:48:44;15.60;99.90
16999;DHT22;10211;49.476;11.010;2023-10-19T14:51:13;15.50;99.90
16999;DHT22;10211;49.476;11.010;2023-10-19T14:53:40;15.50;99.90
16999;DHT22;10211;49.476;11.010;2023-10-19T14:56:07;15.40;99.90
16999;DHT22;10211;49.476;11.010;2023-10-19T14:58:34;15.40;99.90
16999;DHT22;10211;49.476;11.010;2023-10-19T15:01:01;15.30;99.90
16999;DHT22;10211;49.476;11.010;2023-10-19T15:03:27;15.20;99.90
16999;DHT22;10211;49.476;11.010;2023-10-19T15:05:54;15.20;99.90
16999;DHT22;10211;49.476;11.010;2023-10-19T15:08:24;15.10;99.90
16999;DHT22;10211;49.476;11.010;2023-10-19T15:10:54;15.10;99.90
16999;DHT22;10211;49.476;11.010;2023-10-19T15:13:20;15.00;99.90
16999;DHT22;10211;49.476;11.010;2023-10-19T15:15:47;14.90;99.90
16999;DHT22;10211;49.476;11.010;2023-10-19T15:18:14;14.90;99.90
16999;DHT22;10211;49.476;11.010;2023-10-19T15:20:40;14.90;99.90
16999;DHT22;10211;49.476;11.010;2023-10-19T15:23:07;14.90;99.90
16999;DHT22;10211;49.476;11.010;2023-10-19T15:25:36;14.90;99.90
16999;DHT22;10211;49.476;11.010;2023-10-19T15:28:05;14.90;99.90
16999;DHT22;10211;49.476;11.010;2023-10-19T15:30:33;14.80;99.90
16999;DHT22;10211;49.476;11.010;2023-10-19T15:33:00;15.10;99.90
16999;DHT22;10211;49.476;11.010;2023-10-19T15:35:28;14.60;99.90